createdAt,value
2022-09-23T00:01:02.676Z,12.20
2022-09-23T00:03:31.417Z,12.20
2022-09-23T00:06:03.771Z,12.00
2022-09-23T00:08:30.960Z,11.90
2022-09-23T00:10:58.016Z,11.80
2022-09-23T00:13:25.445Z,11.80
2022-09-23T00:15:52.251Z,11.60
2022-09-23T00:18:20.552Z,11.60
2022-09-23T00:20:47.870Z,11.50
2022-09-23T00:23:14.737Z,11.50
2022-09-23T00:25:41.372Z,11.70
2022-09-23T00:28:08.151Z,11.90
2022-09-23T00:30:35.008Z,12.00
2022-09-23T00:33:01.675Z,11.90
2022-09-23T00:35:28.345Z,11.80
2022-09-23T00:37:54.915Z,12.00
2022-09-23T00:40:21.574Z,11.80
2022-09-23T00:42:51.163Z,11.80
2022-09-23T00:45:18.520Z,11.70
2022-09-23T00:47:52.597Z,11.70
2022-09-23T00:50:30.105Z,11.70
2022-09-23T00:53:00.569Z,11.80
2022-09-23T00:55:32.959Z,11.80
2022-09-23T00:58:02.701Z,11.80
2022-09-23T01:00:29.465Z,11.70
2022-09-23T01:02:56.137Z,11.80
2022-09-23T01:05:23.259Z,11.70
2022-09-23T01:07:50.754Z,11.90
2022-09-23T01:10:18.493Z,11.90
2022-09-23T01:12:48.152Z,11.80
2022-09-23T01:15:19.041Z,11.70
2022-09-23T01:18:02.569Z,11.70
2022-09-23T01:20:44.692Z,11.70
2022-09-23T01:23:16.680Z,11.70
2022-09-23T01:26:03.838Z,11.60
2022-09-23T01:29:12.422Z,11.60
2022-09-23T01:31:55.119Z,11.60
2022-09-23T01:34:30.654Z,11.60
2022-09-23T01:37:06.751Z,11.60
2022-09-23T01:40:03.459Z,11.50
2022-09-23T01:42:41.694Z,11.40
2022-09-23T01:45:14.921Z,11.40
2022-09-23T01:47:50.626Z,11.40
2022-09-23T01:50:38.981Z,11.40
2022-09-23T01:53:12.585Z,11.30
2022-09-23T01:55:43.417Z,11.30
2022-09-23T01:58:15.664Z,11.30
2022-09-23T02:00:51.022Z,11.30
2022-09-23T02:03:26.760Z,11.30
2022-09-23T02:06:22.797Z,11.40
2022-09-23T02:08:57.970Z,11.30
2022-09-23T02:11:24.955Z,11.30
2022-09-23T02:13:59.899Z,11.30
2022-09-23T02:16:39.462Z,11.20
2022-09-23T02:19:30.670Z,11.10
2022-09-23T02:22:15.057Z,11.20
2022-09-23T02:24:41.908Z,11.30
2022-09-23T02:27:32.407Z,11.20
2022-09-23T02:30:11.727Z,11.20
2022-09-23T02:33:05.135Z,11.20
2022-09-23T02:35:40.222Z,11.10
2022-09-23T02:38:29.421Z,11.10
2022-09-23T02:41:22.677Z,11.10
2022-09-23T02:43:59.747Z,11.10
2022-09-23T02:46:28.239Z,11.00
2022-09-23T02:49:29.225Z,10.90
2022-09-23T02:51:57.386Z,10.90
2022-09-23T02:54:29.215Z,10.90
2022-09-23T02:57:39.550Z,11.00
2022-09-23T03:00:06.918Z,10.90
2022-09-23T03:03:11.494Z,11.00
2022-09-23T03:05:46.774Z,10.90
2022-09-23T03:08:25.626Z,10.80
2022-09-23T03:11:11.163Z,10.80
2022-09-23T03:13:51.057Z,10.90
2022-09-23T03:16:47.666Z,10.70
2022-09-23T03:19:23.472Z,10.70
2022-09-23T03:21:52.841Z,10.80
2022-09-23T03:24:21.622Z,10.70
2022-09-23T03:26:49.801Z,10.70
2022-09-23T03:29:19.196Z,10.70
2022-09-23T03:31:46.016Z,10.70
2022-09-23T03:34:24.261Z,10.70
2022-09-23T03:37:02.819Z,10.70
2022-09-23T03:39:58.891Z,10.70
2022-09-23T03:42:30.007Z,10.60
2022-09-23T03:44:57.715Z,10.70
2022-09-23T03:47:26.748Z,10.80
2022-09-23T03:49:54.267Z,10.60
2022-09-23T03:52:22.972Z,10.60
2022-09-23T03:54:51.118Z,10.40
2022-09-23T03:57:18.654Z,10.50
2022-09-23T03:59:45.242Z,10.40
2022-09-23T04:02:11.986Z,10.30
2022-09-23T04:04:41.033Z,10.30
2022-09-23T04:07:08.260Z,10.30
2022-09-23T04:09:35.320Z,10.40
2022-09-23T04:12:03.582Z,10.40
2022-09-23T04:14:30.348Z,10.30
2022-09-23T04:16:57.031Z,10.40
2022-09-23T04:19:23.733Z,10.40
2022-09-23T04:25:58.775Z,10.40
2022-09-23T04:28:25.481Z,10.40
2022-09-23T04:30:52.301Z,10.30
2022-09-23T04:33:19.165Z,10.30
2022-09-23T04:35:53.070Z,10.10
2022-09-23T04:38:19.750Z,10.10
2022-09-23T04:40:46.745Z,10.10
2022-09-23T04:43:14.825Z,10.20
2022-09-23T04:45:42.803Z,10.20
2022-09-23T04:48:11.217Z,10.30
2022-09-23T04:50:38.443Z,10.30
2022-09-23T04:53:05.640Z,10.30
2022-09-23T04:55:32.611Z,10.30
2022-09-23T04:57:59.343Z,10.20
2022-09-23T05:00:26.984Z,10.30
2022-09-23T05:02:53.627Z,10.20
2022-09-23T05:05:21.132Z,10.20
2022-09-23T05:07:48.393Z,10.10
2022-09-23T05:10:15.710Z,10.10
2022-09-23T05:12:42.534Z,10.10
2022-09-23T05:15:09.622Z,10.10
2022-09-23T05:17:39.540Z,10.20
2022-09-23T05:20:06.808Z,10.10
2022-09-23T05:22:33.706Z,10.10
2022-09-23T05:25:01.546Z,10.10
2022-09-23T05:27:28.917Z,10.20
2022-09-23T05:29:55.726Z,10.00
2022-09-23T05:32:22.513Z,10.00
2022-09-23T05:34:49.115Z,10.00
2022-09-23T05:37:15.743Z,10.10
2022-09-23T05:39:42.387Z,10.10
2022-09-23T05:42:09.985Z,10.00
2022-09-23T05:44:39.245Z,10.00
2022-09-23T05:47:06.243Z,10.00
2022-09-23T05:49:55.121Z,10.10
2022-09-23T05:52:19.683Z,10.00
2022-09-23T05:54:46.333Z,10.00
2022-09-23T05:57:12.959Z,10.10
2022-09-23T05:59:39.718Z,10.10
2022-09-23T06:02:06.641Z,10.10
2022-09-23T06:04:33.422Z,10.10
2022-09-23T06:07:03.227Z,10.20
2022-09-23T06:09:35.605Z,10.20
2022-09-23T06:12:03.892Z,10.30
2022-09-23T06:14:30.577Z,10.30
2022-09-23T06:16:57.209Z,10.30
2022-09-23T06:19:23.842Z,10.50
2022-09-23T06:21:50.444Z,10.50
2022-09-23T06:24:21.255Z,10.50
2022-09-23T06:26:49.647Z,10.50
2022-09-23T06:29:18.041Z,10.70
2022-09-23T06:31:44.793Z,10.80
2022-09-23T06:34:16.234Z,10.70
2022-09-23T06:36:45.382Z,10.90
2022-09-23T06:39:16.286Z,11.00
2022-09-23T06:41:44.206Z,11.00
2022-09-23T06:44:11.055Z,11.00
2022-09-23T06:46:37.769Z,11.10
2022-09-23T06:49:04.460Z,11.20
2022-09-23T06:51:31.076Z,11.20
2022-09-23T06:53:57.842Z,11.30
2022-09-23T06:56:24.622Z,11.40
2022-09-23T06:58:54.716Z,11.50
2022-09-23T07:01:22.210Z,11.50
2022-09-23T07:03:48.929Z,11.50
2022-09-23T07:06:16.099Z,11.50
2022-09-23T07:08:44.782Z,11.50
2022-09-23T07:11:13.028Z,11.40
2022-09-23T07:13:41.884Z,11.60
2022-09-23T07:16:09.861Z,11.50
2022-09-23T07:18:37.546Z,11.70
2022-09-23T07:21:16.926Z,11.80
2022-09-23T07:23:50.112Z,11.80
2022-09-23T07:26:17.954Z,11.90
2022-09-23T07:28:45.437Z,12.00
2022-09-23T07:31:14.881Z,11.90
2022-09-23T07:33:43.895Z,12.00
2022-09-23T07:36:17.199Z,12.10
2022-09-23T07:38:45.779Z,12.10
2022-09-23T07:41:15.184Z,12.00
2022-09-23T07:43:41.906Z,12.00
2022-09-23T07:46:11.882Z,12.10
2022-09-23T07:48:39.250Z,12.20
2022-09-23T07:51:21.749Z,12.30
2022-09-23T07:53:51.112Z,12.40
2022-09-23T07:56:21.225Z,12.40
2022-09-23T07:58:59.963Z,12.50
2022-09-23T08:01:29.403Z,12.50
2022-09-23T08:03:58.011Z,12.70
2022-09-23T08:06:24.851Z,12.70
2022-09-23T08:08:53.423Z,12.80
2022-09-23T08:11:20.330Z,12.80
2022-09-23T08:13:47.713Z,12.90
2022-09-23T08:16:14.315Z,12.80
2022-09-23T08:18:44.558Z,12.80
2022-09-23T08:21:11.229Z,12.90
2022-09-23T08:23:37.874Z,12.90
2022-09-23T08:26:08.589Z,12.90
2022-09-23T08:28:41.070Z,13.00
2022-09-23T08:31:08.314Z,13.10
2022-09-23T08:33:34.977Z,13.10
2022-09-23T08:36:02.828Z,13.10
2022-09-23T08:38:30.133Z,13.10
2022-09-23T08:41:23.472Z,13.30
2022-09-23T08:43:56.230Z,13.30
2022-09-23T08:46:28.407Z,13.40
2022-09-23T08:48:56.054Z,13.50
2022-09-23T08:51:36.072Z,13.50
2022-09-23T08:54:02.900Z,13.70
2022-09-23T08:56:30.940Z,13.80
2022-09-23T08:59:05.491Z,13.90
2022-09-23T09:01:52.579Z,14.00
2022-09-23T09:04:37.685Z,14.10
2022-09-23T09:07:34.757Z,14.20
2022-09-23T09:10:03.361Z,14.40
2022-09-23T09:12:44.864Z,14.40
2022-09-23T09:15:13.252Z,14.50
2022-09-23T09:18:07.937Z,14.50
2022-09-23T09:20:45.298Z,14.70
2022-09-23T09:23:14.917Z,14.80
2022-09-23T09:25:50.654Z,14.90
2022-09-23T09:28:30.881Z,15.00
2022-09-23T09:31:01.224Z,15.10
2022-09-23T09:33:36.863Z,15.30
2022-09-23T09:36:08.830Z,15.30
2022-09-23T09:38:36.532Z,15.30
2022-09-23T09:41:15.863Z,15.30
2022-09-23T09:43:47.489Z,15.50
2022-09-23T09:46:41.677Z,15.50
2022-09-23T09:49:26.044Z,15.60
2022-09-23T09:52:22.443Z,15.70
2022-09-23T09:54:50.912Z,15.70
2022-09-23T09:57:33.567Z,15.70
2022-09-23T10:00:26.455Z,15.70
2022-09-23T10:02:55.477Z,15.50
2022-09-23T10:05:28.276Z,15.60
2022-09-23T10:07:55.182Z,15.70
2022-09-23T10:10:33.515Z,15.70
2022-09-23T10:13:15.198Z,15.80
2022-09-23T10:15:45.116Z,15.90
2022-09-23T10:18:19.809Z,15.90
2022-09-23T10:20:47.927Z,16.00
2022-09-23T10:23:20.996Z,16.00
2022-09-23T10:26:08.091Z,16.10
2022-09-23T10:28:48.428Z,16.10
2022-09-23T10:31:24.550Z,16.20
2022-09-23T10:33:55.481Z,16.30
2022-09-23T10:36:22.190Z,16.20
2022-09-23T10:39:23.802Z,16.30
2022-09-23T10:42:18.301Z,16.50
2022-09-23T10:45:27.742Z,16.40
2022-09-23T10:48:28.010Z,16.60
2022-09-23T10:50:55.906Z,16.70
2022-09-23T10:53:25.979Z,16.80
2022-09-23T10:56:23.704Z,16.80
2022-09-23T10:58:53.058Z,16.90
2022-09-23T11:01:31.636Z,17.00
2022-09-23T11:04:16.795Z,17.10
2022-09-23T11:07:08.073Z,17.20
2022-09-23T11:09:40.450Z,17.20
2022-09-23T11:12:20.573Z,17.20
2022-09-23T11:15:10.855Z,17.40
2022-09-23T11:18:03.377Z,17.50
2022-09-23T11:20:57.308Z,17.70
2022-09-23T11:23:23.903Z,18.00
2022-09-23T11:26:14.876Z,18.00
2022-09-23T11:29:00.396Z,18.20
2022-09-23T11:32:04.747Z,18.20
2022-09-23T11:34:54.837Z,18.20
2022-09-23T11:37:27.589Z,18.10
2022-09-23T11:40:34.360Z,18.30
2022-09-23T11:43:13.309Z,18.30
2022-09-23T11:45:46.130Z,18.40
2022-09-23T11:48:18.429Z,18.40
2022-09-23T11:50:56.029Z,18.40
2022-09-23T11:53:46.989Z,18.60
2022-09-23T11:56:32.304Z,18.70
2022-09-23T11:59:15.819Z,18.70
2022-09-23T12:01:55.050Z,18.60
2022-09-23T12:04:33.481Z,18.70
2022-09-23T12:07:09.155Z,18.70
2022-09-23T12:10:06.459Z,18.70
2022-09-23T12:12:42.687Z,18.60
2022-09-23T12:15:24.539Z,18.40
2022-09-23T12:18:17.498Z,18.30
2022-09-23T12:21:04.082Z,18.30
2022-09-23T12:23:30.628Z,18.30
2022-09-23T12:26:01.688Z,18.20
2022-09-23T12:28:31.239Z,18.30
2022-09-23T12:31:01.948Z,18.30
2022-09-23T12:33:32.344Z,18.30
2022-09-23T12:36:08.960Z,18.40
2022-09-23T12:38:51.907Z,18.50
2022-09-23T12:41:33.107Z,18.40
2022-09-23T12:44:15.449Z,18.50
2022-09-23T12:46:46.265Z,18.60
2022-09-23T12:49:27.019Z,18.50
2022-09-23T12:52:16.724Z,18.50
2022-09-23T12:54:45.900Z,18.50
2022-09-23T12:57:34.134Z,18.30
2022-09-23T13:00:07.064Z,18.30
2022-09-23T13:02:37.266Z,18.30
2022-09-23T13:05:40.241Z,18.30
2022-09-23T13:08:16.918Z,18.30
2022-09-23T13:10:49.613Z,18.20
2022-09-23T13:13:31.570Z,18.30
2022-09-23T13:16:19.758Z,18.20
2022-09-23T13:19:06.780Z,18.30
2022-09-23T13:21:42.354Z,18.30
2022-09-23T13:24:29.965Z,18.40
2022-09-23T13:27:00.136Z,18.40
2022-09-23T13:29:35.165Z,18.50
2022-09-23T13:32:02.577Z,18.50
2022-09-23T13:34:33.606Z,18.30
2022-09-23T13:37:22.787Z,18.30
2022-09-23T13:39:49.985Z,18.40
2022-09-23T13:42:28.997Z,18.60
2022-09-23T13:44:58.985Z,18.60
2022-09-23T13:47:28.471Z,18.60
2022-09-23T13:49:55.799Z,18.70
2022-09-23T13:52:26.965Z,18.80
2022-09-23T13:54:53.954Z,18.70
2022-09-23T13:57:33.744Z,18.70
2022-09-23T14:00:21.097Z,18.60
2022-09-23T14:02:47.843Z,18.60
2022-09-23T14:05:23.169Z,18.70
2022-09-23T14:07:51.250Z,18.70
2022-09-23T14:10:24.427Z,18.70
2022-09-23T14:12:52.675Z,18.50
2022-09-23T14:15:21.421Z,18.50
2022-09-23T14:17:51.326Z,18.40
2022-09-23T14:20:20.417Z,18.30
2022-09-23T14:22:47.006Z,18.40
2022-09-23T14:25:15.433Z,18.40
2022-09-23T14:27:43.459Z,18.30
2022-09-23T14:30:19.232Z,18.30
2022-09-23T14:32:47.871Z,18.30
2022-09-23T14:35:19.225Z,18.30
2022-09-23T14:38:06.439Z,18.20
2022-09-23T14:40:34.655Z,18.20
2022-09-23T14:43:23.229Z,18.20
2022-09-23T14:45:55.691Z,18.00
2022-09-23T14:48:33.910Z,18.00
2022-09-23T14:51:03.497Z,18.00
2022-09-23T14:53:42.414Z,18.00
2022-09-23T14:56:14.302Z,18.00
2022-09-23T14:58:49.469Z,18.00
2022-09-23T15:01:27.870Z,17.90
2022-09-23T15:03:56.139Z,17.90
2022-09-23T15:06:23.806Z,17.90
2022-09-23T15:08:52.608Z,17.90
2022-09-23T15:11:21.270Z,17.90
2022-09-23T15:13:51.067Z,18.00
2022-09-23T15:16:27.738Z,17.80
2022-09-23T15:18:57.577Z,17.80
2022-09-23T15:21:25.787Z,17.80
2022-09-23T15:23:55.039Z,17.80
2022-09-23T15:26:24.040Z,17.90
2022-09-23T15:28:54.020Z,17.80
2022-09-23T15:31:22.589Z,17.70
2022-09-23T15:33:50.637Z,17.70
2022-09-23T15:36:25.804Z,17.70
2022-09-23T15:38:53.037Z,17.60
2022-09-23T15:41:19.934Z,17.60
2022-09-23T15:43:47.174Z,17.60
2022-09-23T15:46:26.183Z,17.60
2022-09-23T15:49:10.208Z,17.60
2022-09-23T15:51:38.151Z,17.70
2022-09-23T15:54:11.804Z,17.60
2022-09-23T15:56:38.379Z,17.60
2022-09-23T15:59:05.054Z,17.50
2022-09-23T16:01:36.299Z,17.40
2022-09-23T16:04:04.422Z,17.50
2022-09-23T16:06:31.793Z,17.50
2022-09-23T16:08:58.473Z,17.50
2022-09-23T16:11:30.090Z,17.50
2022-09-23T16:13:56.846Z,17.50
2022-09-23T16:16:23.522Z,17.50
2022-09-23T16:18:53.457Z,17.40
2022-09-23T16:21:26.207Z,17.40
2022-09-23T16:23:54.394Z,17.30
2022-09-23T16:26:26.943Z,17.30
2022-09-23T16:28:55.855Z,17.30
2022-09-23T16:31:25.223Z,17.30
2022-09-23T16:33:53.406Z,17.20
2022-09-23T16:36:39.568Z,17.20
2022-09-23T16:39:10.160Z,17.20
2022-09-23T16:41:37.032Z,17.20
2022-09-23T16:44:06.273Z,17.20
2022-09-23T16:46:34.245Z,17.20
2022-09-23T16:49:00.941Z,17.20
2022-09-23T16:51:38.259Z,17.10
2022-09-23T16:54:10.892Z,17.00
2022-09-23T16:56:45.006Z,17.00
2022-09-23T16:59:13.229Z,17.00
2022-09-23T17:01:58.420Z,17.00
2022-09-23T17:04:25.028Z,17.00
2022-09-23T17:06:52.812Z,16.90
2022-09-23T17:09:21.371Z,17.00
2022-09-23T17:12:04.210Z,16.90
2022-09-23T17:14:31.490Z,16.90
2022-09-23T17:16:58.784Z,16.90
2022-09-23T17:19:25.476Z,16.90
2022-09-23T17:21:53.493Z,16.80
2022-09-23T17:24:20.206Z,16.80
2022-09-23T17:26:50.688Z,16.70
2022-09-23T17:29:18.713Z,16.70
2022-09-23T17:31:46.458Z,16.60
2022-09-23T17:34:13.260Z,16.60
2022-09-23T17:36:40.288Z,16.50
2022-09-23T17:39:07.001Z,16.60
2022-09-23T17:41:33.715Z,16.60
2022-09-23T17:44:00.565Z,16.50
2022-09-23T17:46:30.856Z,16.50
2022-09-23T17:48:58.100Z,16.50
2022-09-23T17:51:25.545Z,16.50
2022-09-23T17:53:52.235Z,16.50
2022-09-23T17:56:26.490Z,16.40
2022-09-23T17:58:54.050Z,16.40
2022-09-23T18:01:23.511Z,16.30
2022-09-23T18:03:58.345Z,16.30
2022-09-23T18:06:27.748Z,16.30
2022-09-23T18:08:56.000Z,16.30
2022-09-23T18:11:30.472Z,16.30
2022-09-23T18:13:59.606Z,16.30
2022-09-23T18:16:29.278Z,16.20
2022-09-23T18:19:00.861Z,16.10
2022-09-23T18:21:35.158Z,16.00
2022-09-23T18:24:21.699Z,15.80
2022-09-23T18:26:50.212Z,15.70
2022-09-23T18:29:17.193Z,15.70
2022-09-23T18:31:45.078Z,15.50
2022-09-23T18:34:13.827Z,15.60
2022-09-23T18:36:40.546Z,15.50
2022-09-23T18:39:07.470Z,15.50
2022-09-23T18:41:34.995Z,15.50
2022-09-23T18:44:01.806Z,15.50
2022-09-23T18:46:29.921Z,15.50
2022-09-23T18:49:16.225Z,15.50
2022-09-23T18:51:57.160Z,15.40
2022-09-23T18:54:26.058Z,15.40
2022-09-23T18:56:53.025Z,15.30
2022-09-23T18:59:23.664Z,15.40
2022-09-23T19:01:50.846Z,15.50
2022-09-23T19:04:20.038Z,15.40
2022-09-23T19:06:47.212Z,15.40
2022-09-23T19:09:15.286Z,15.50
2022-09-23T19:11:42.275Z,15.40
2022-09-23T19:14:11.421Z,15.40
2022-09-23T19:16:39.646Z,15.50
2022-09-23T19:19:06.602Z,15.60
2022-09-23T19:21:33.479Z,15.60
2022-09-23T19:24:03.697Z,15.60
2022-09-23T19:26:34.259Z,15.60
2022-09-23T19:29:03.094Z,15.70
2022-09-23T19:31:33.316Z,15.70
2022-09-23T19:34:10.564Z,15.70
2022-09-23T19:36:39.358Z,15.80
2022-09-23T19:39:08.656Z,15.80
2022-09-23T19:41:35.588Z,15.80
2022-09-23T19:44:03.183Z,15.90
2022-09-23T19:46:30.951Z,15.90
2022-09-23T19:48:58.467Z,15.80
2022-09-23T19:51:25.374Z,15.80
2022-09-23T19:53:52.291Z,15.80
2022-09-23T19:56:19.765Z,15.80
2022-09-23T19:58:48.228Z,15.80
2022-09-23T20:01:16.234Z,15.70
2022-09-23T20:03:46.961Z,15.70
2022-09-23T20:06:14.574Z,15.60
2022-09-23T20:08:41.857Z,15.60
2022-09-23T20:11:11.495Z,15.50
2022-09-23T20:13:41.290Z,15.50
2022-09-23T20:16:11.304Z,15.40
2022-09-23T20:18:38.929Z,15.50
2022-09-23T20:21:07.270Z,15.40
2022-09-23T20:23:34.379Z,15.50
2022-09-23T20:26:21.135Z,15.40
2022-09-23T20:28:48.053Z,15.40
2022-09-23T20:31:16.267Z,15.40
2022-09-23T20:33:43.302Z,15.30
2022-09-23T20:36:13.211Z,15.30
2022-09-23T20:38:40.504Z,15.30
2022-09-23T20:41:08.143Z,15.10
2022-09-23T20:43:35.322Z,15.00
2022-09-23T20:46:03.482Z,15.00
2022-09-23T20:48:30.827Z,14.90
2022-09-23T20:51:05.294Z,14.90
2022-09-23T20:53:32.581Z,14.90
2022-09-23T20:55:59.697Z,14.80
2022-09-23T20:58:29.125Z,14.80
2022-09-23T21:01:22.390Z,14.90
2022-09-23T21:03:52.218Z,14.90
2022-09-23T21:06:19.527Z,15.00
2022-09-23T21:08:46.525Z,15.00
2022-09-23T21:11:16.364Z,15.00
2022-09-23T21:13:51.266Z,15.10
2022-09-23T21:16:22.344Z,15.30
2022-09-23T21:18:50.359Z,15.30
2022-09-23T21:21:19.503Z,15.20
2022-09-23T21:23:47.502Z,15.20
2022-09-23T21:26:19.172Z,15.20
2022-09-23T21:28:48.661Z,15.10
2022-09-23T21:31:24.114Z,15.10
2022-09-23T21:33:56.465Z,15.10
2022-09-23T21:36:24.470Z,15.10
2022-09-23T21:38:52.034Z,15.00
2022-09-23T21:41:19.125Z,15.00
2022-09-23T21:43:45.875Z,15.00
2022-09-23T21:46:14.670Z,14.90
2022-09-23T21:48:42.293Z,14.80
2022-09-23T21:51:11.934Z,14.90
2022-09-23T21:53:39.582Z,14.90
2022-09-23T21:56:21.226Z,14.70
2022-09-23T21:58:48.486Z,14.80
2022-09-23T22:01:22.211Z,14.80
2022-09-23T22:03:51.420Z,14.80
2022-09-23T22:06:21.356Z,14.80
2022-09-23T22:08:51.207Z,14.80
2022-09-23T22:11:39.039Z,14.80
2022-09-23T22:14:07.697Z,14.80
2022-09-23T22:16:35.817Z,14.70
2022-09-23T22:19:06.810Z,14.70
2022-09-23T22:21:36.488Z,14.70
2022-09-23T22:24:04.962Z,14.80
2022-09-23T22:26:38.289Z,14.70
2022-09-23T22:29:25.788Z,14.70
2022-09-23T22:32:11.110Z,14.70
2022-09-23T22:34:55.644Z,14.70
2022-09-23T22:37:26.988Z,14.70
2022-09-23T22:39:54.148Z,14.70
2022-09-23T22:42:22.169Z,14.70
2022-09-23T22:44:49.592Z,14.80
2022-09-23T22:47:17.831Z,14.70
2022-09-23T22:49:45.480Z,14.80
2022-09-23T22:52:12.513Z,14.80
2022-09-23T22:54:39.162Z,14.80
2022-09-23T22:57:07.492Z,14.80
2022-09-23T22:59:34.742Z,14.70
2022-09-23T23:02:05.179Z,14.70
2022-09-23T23:04:31.909Z,14.80
2022-09-23T23:06:58.729Z,14.70
2022-09-23T23:09:25.567Z,14.80
2022-09-23T23:11:52.221Z,14.80
2022-09-23T23:14:19.202Z,14.70
2022-09-23T23:16:46.440Z,14.70
2022-09-23T23:19:16.822Z,14.60
2022-09-23T23:21:44.756Z,14.70
2022-09-23T23:24:22.862Z,14.80
2022-09-23T23:26:50.791Z,14.70
2022-09-23T23:29:19.238Z,14.70
2022-09-23T23:31:46.297Z,14.70
2022-09-23T23:34:20.902Z,14.70
2022-09-23T23:36:53.386Z,14.70
2022-09-23T23:39:21.035Z,14.60
2022-09-23T23:41:49.091Z,14.60
2022-09-23T23:44:15.805Z,14.60
2022-09-23T23:46:42.460Z,14.50
2022-09-23T23:49:09.164Z,14.50
2022-09-23T23:51:35.780Z,14.50
2022-09-23T23:54:02.421Z,14.50
2022-09-23T23:56:30.726Z,14.40
2022-09-23T23:59:02.456Z,14.50
